Sharptown, Maryland
Current Conditions -  °F | °C
As of 1:16 PM on Sunday 25 Jan 2015 (Local Time) from KCGE Reporting Station
Overcast Overcast  
Wind Chill: 46°   Ceiling: 4600
Heat Index: 48°   Visibility: 10mi
Dew Point: 32°   Wind: 6mph
Humidity: 54%   Direction: 230°SW
Pressure: 29.84"   Gusts: NA
Location:  38.54°N, 75.72°W
Report Text: KCGE 251816Z AUTO 23005KT 10SM OVC046 09/00 A2984 RMK AO1
Loading
Personal Weather Stations






























Interactive Weather Map New forecast layout! Learn more

10-Day Weather Forecast

Advertisements
Track Severe Weather on mobile